createdAt,value
2022-12-27T00:01:11.140Z,82.95
2022-12-27T00:03:39.146Z,82.73
2022-12-27T00:06:08.928Z,82.89
2022-12-27T00:08:38.309Z,83.25
2022-12-27T00:11:08.017Z,83.37
2022-12-27T00:13:36.084Z,83.42
2022-12-27T00:16:05.144Z,83.70
2022-12-27T00:18:33.254Z,83.86
2022-12-27T00:21:02.695Z,84.27
2022-12-27T00:23:32.979Z,84.79
2022-12-27T00:26:03.139Z,85.49
2022-12-27T00:28:32.179Z,85.47
2022-12-27T00:31:01.023Z,86.00
2022-12-27T00:33:31.115Z,86.70
2022-12-27T00:35:59.970Z,86.75
2022-12-27T00:38:28.097Z,87.03
2022-12-27T00:40:56.452Z,87.26
2022-12-27T00:43:25.787Z,87.60
2022-12-27T00:45:53.991Z,87.93
2022-12-27T00:48:22.264Z,88.07
2022-12-27T00:50:50.714Z,88.27
2022-12-27T00:53:18.854Z,88.44
2022-12-27T00:55:46.858Z,88.69
2022-12-27T00:58:14.797Z,88.57
2022-12-27T01:00:44.137Z,88.61
2022-12-27T01:03:12.186Z,88.64
2022-12-27T01:05:40.428Z,88.86
2022-12-27T01:08:08.454Z,88.80
2022-12-27T01:10:36.633Z,88.99
2022-12-27T01:13:05.499Z,89.11
2022-12-27T01:15:33.563Z,89.01
2022-12-27T01:18:02.987Z,89.12
2022-12-27T01:20:31.040Z,89.31
2022-12-27T01:22:58.986Z,89.36
2022-12-27T01:25:27.046Z,89.41
2022-12-27T01:27:55.046Z,89.55
2022-12-27T01:30:23.018Z,89.51
2022-12-27T01:32:51.020Z,89.64
2022-12-27T01:35:20.333Z,89.67
2022-12-27T01:37:48.459Z,89.60
2022-12-27T01:40:16.532Z,89.55
2022-12-27T01:42:52.733Z,89.58
2022-12-27T01:45:21.928Z,89.65
2022-12-27T01:47:54.505Z,89.75
2022-12-27T01:50:32.767Z,89.91
2022-12-27T01:53:05.685Z,89.95
2022-12-27T01:55:38.791Z,90.01
2022-12-27T01:58:11.337Z,90.04
2022-12-27T02:00:40.006Z,90.10
2022-12-27T02:03:08.476Z,90.10
2022-12-27T02:05:41.812Z,90.27
2022-12-27T02:08:21.404Z,90.38
2022-12-27T02:10:50.570Z,90.40
2022-12-27T02:13:20.023Z,90.45
2022-12-27T02:15:48.362Z,90.48
2022-12-27T02:18:16.815Z,90.64
2022-12-27T02:21:16.310Z,90.86
2022-12-27T02:24:03.887Z,90.93
2022-12-27T02:26:47.700Z,90.83
2022-12-27T02:29:53.402Z,90.55
2022-12-27T02:32:24.991Z,90.39
2022-12-27T02:35:00.510Z,90.31
2022-12-27T02:37:30.450Z,90.13
2022-12-27T02:40:20.466Z,90.07
2022-12-27T02:43:07.343Z,89.86
2022-12-27T02:45:57.762Z,90.03
2022-12-27T02:48:43.224Z,89.97
2022-12-27T02:51:41.102Z,90.08
2022-12-27T02:54:20.785Z,90.23
2022-12-27T02:57:09.622Z,90.28
2022-12-27T03:00:06.656Z,90.49
2022-12-27T03:03:01.646Z,90.77
2022-12-27T03:05:35.876Z,90.96
2022-12-27T03:08:08.267Z,91.07
2022-12-27T03:10:59.982Z,91.02
2022-12-27T03:13:56.477Z,91.03
2022-12-27T03:16:27.391Z,91.26
2022-12-27T03:19:02.476Z,91.14
2022-12-27T03:21:49.787Z,91.03
2022-12-27T03:24:36.805Z,91.06
2022-12-27T03:27:09.885Z,90.98
2022-12-27T03:29:56.539Z,91.06
2022-12-27T03:32:42.783Z,91.07
2022-12-27T03:35:16.723Z,91.05
2022-12-27T03:38:05.389Z,91.03
2022-12-27T03:41:02.280Z,90.82
2022-12-27T03:43:31.002Z,90.86
2022-12-27T03:46:17.579Z,90.77
2022-12-27T03:49:06.909Z,90.76
2022-12-27T03:51:39.343Z,90.61
2022-12-27T03:54:10.789Z,90.70
2022-12-27T03:56:41.787Z,90.62
2022-12-27T03:59:11.093Z,90.66
2022-12-27T04:01:39.201Z,90.62
2022-12-27T04:04:07.229Z,90.53
2022-12-27T04:06:35.187Z,90.42
2022-12-27T04:09:22.617Z,90.29
2022-12-27T04:12:08.492Z,90.24
2022-12-27T04:14:54.101Z,90.10
2022-12-27T04:17:39.591Z,89.77
2022-12-27T04:20:25.252Z,89.62
2022-12-27T04:23:10.787Z,89.39
2022-12-27T04:25:57.865Z,89.18
2022-12-27T04:28:43.562Z,89.06
2022-12-27T04:31:29.280Z,88.83
2022-12-27T04:34:15.075Z,88.57
2022-12-27T04:36:43.359Z,88.48
2022-12-27T04:39:11.489Z,88.36
2022-12-27T04:41:59.664Z,88.27
2022-12-27T04:44:45.187Z,87.86
2022-12-27T04:47:31.603Z,87.68
2022-12-27T04:50:17.180Z,87.51
2022-12-27T04:53:03.043Z,87.25
2022-12-27T04:55:31.804Z,87.03
2022-12-27T04:58:01.075Z,87.04
2022-12-27T05:00:48.864Z,86.81
2022-12-27T05:03:19.627Z,86.88
2022-12-27T05:05:48.357Z,87.05
2022-12-27T05:08:34.624Z,87.11
2022-12-27T05:11:20.534Z,87.20
2022-12-27T05:14:02.302Z,87.11
2022-12-27T05:16:31.907Z,87.20
2022-12-27T05:19:00.257Z,87.18
2022-12-27T05:21:28.695Z,87.17
2022-12-27T05:24:23.049Z,87.37
2022-12-27T05:26:51.115Z,87.38
2022-12-27T05:29:20.505Z,87.46
2022-12-27T05:31:48.650Z,87.66
2022-12-27T05:34:16.734Z,87.68
2022-12-27T05:36:44.956Z,87.62
2022-12-27T05:39:12.926Z,87.54
2022-12-27T05:41:41.276Z,87.50
2022-12-27T05:44:09.433Z,87.40
2022-12-27T05:46:38.843Z,87.31
2022-12-27T05:49:06.836Z,87.30
2022-12-27T05:51:35.063Z,87.27
2022-12-27T05:54:03.077Z,87.21
2022-12-27T05:56:31.125Z,87.17
2022-12-27T05:58:59.388Z,87.15
2022-12-27T06:01:27.471Z,87.13
2022-12-27T06:03:56.902Z,87.14
2022-12-27T06:06:25.069Z,87.24
2022-12-27T06:08:53.177Z,87.01
2022-12-27T06:11:21.272Z,87.03
2022-12-27T06:13:51.206Z,87.29
2022-12-27T06:16:19.442Z,87.22
2022-12-27T06:18:47.573Z,87.19
2022-12-27T06:21:19.464Z,87.17
2022-12-27T06:23:48.144Z,87.41
2022-12-27T06:26:19.158Z,87.42
2022-12-27T06:28:47.311Z,87.72
2022-12-27T06:31:15.322Z,87.88
2022-12-27T06:33:43.442Z,87.86
2022-12-27T06:36:13.811Z,87.75
2022-12-27T06:38:43.471Z,87.76
2022-12-27T06:41:13.009Z,87.95
2022-12-27T06:43:41.533Z,88.08
2022-12-27T06:46:17.292Z,88.09
2022-12-27T06:48:46.342Z,87.88
2022-12-27T06:51:15.758Z,87.82
2022-12-27T06:53:45.242Z,87.93
2022-12-27T06:56:17.516Z,88.17
2022-12-27T06:58:46.082Z,88.20
2022-12-27T07:01:15.748Z,88.23
2022-12-27T07:03:43.929Z,88.31
2022-12-27T07:06:13.183Z,88.29
2022-12-27T07:08:41.295Z,88.18
2022-12-27T07:11:12.115Z,88.14
2022-12-27T07:13:41.740Z,88.06
2022-12-27T07:16:12.208Z,87.92
2022-12-27T07:18:40.679Z,87.79
2022-12-27T07:21:10.548Z,87.62
2022-12-27T07:23:39.264Z,87.52
2022-12-27T07:26:09.253Z,87.52
2022-12-27T07:28:39.045Z,87.51
2022-12-27T07:31:08.025Z,87.50
2022-12-27T07:33:36.266Z,87.58
2022-12-27T07:36:08.566Z,87.68
2022-12-27T07:38:36.637Z,87.65
2022-12-27T07:41:04.913Z,87.51
2022-12-27T07:43:33.268Z,87.23
2022-12-27T07:46:06.861Z,87.10
2022-12-27T07:48:35.113Z,86.65
2022-12-27T07:51:03.464Z,86.39
2022-12-27T07:53:31.834Z,85.96
2022-12-27T07:56:00.029Z,85.67
2022-12-27T07:58:28.051Z,85.46
2022-12-27T08:00:56.074Z,85.35
2022-12-27T08:03:25.517Z,85.45
2022-12-27T08:05:53.608Z,85.57
2022-12-27T08:08:24.154Z,85.79
2022-12-27T08:10:52.215Z,85.77
2022-12-27T08:13:20.228Z,85.74
2022-12-27T08:15:48.245Z,85.62
2022-12-27T08:18:16.604Z,85.57
2022-12-27T08:20:45.926Z,85.44
2022-12-27T08:23:14.458Z,85.49
2022-12-27T08:25:48.488Z,85.28
2022-12-27T08:28:18.797Z,85.26
2022-12-27T08:30:47.919Z,85.29
2022-12-27T08:33:16.504Z,85.00
2022-12-27T08:35:55.021Z,84.86
2022-12-27T08:38:23.471Z,84.59
2022-12-27T08:40:51.655Z,84.46
2022-12-27T08:43:19.704Z,84.43
2022-12-27T08:45:47.837Z,84.40
2022-12-27T08:48:16.167Z,84.39
2022-12-27T08:50:44.179Z,84.30
2022-12-27T08:53:13.762Z,84.18
2022-12-27T08:55:42.079Z,84.08
2022-12-27T08:58:16.044Z,84.09
2022-12-27T09:00:44.649Z,83.94
2022-12-27T09:03:12.821Z,83.89
2022-12-27T09:05:42.190Z,83.64
2022-12-27T09:08:10.796Z,83.79
2022-12-27T09:10:40.437Z,84.02
2022-12-27T09:13:08.778Z,84.15
2022-12-27T09:15:38.254Z,84.12
2022-12-27T09:18:07.501Z,83.45
2022-12-27T09:20:35.560Z,83.65
2022-12-27T09:23:03.647Z,82.76
2022-12-27T09:25:31.798Z,82.02
2022-12-27T09:28:02.067Z,81.08
2022-12-27T09:30:30.206Z,80.95
2022-12-27T09:32:58.920Z,81.32
2022-12-27T09:35:27.109Z,81.71
2022-12-27T09:37:55.164Z,82.25
2022-12-27T09:40:23.386Z,82.73
2022-12-27T09:43:12.628Z,83.15
2022-12-27T09:45:48.362Z,83.52
2022-12-27T09:48:29.270Z,83.84
2022-12-27T09:51:04.117Z,84.27
2022-12-27T09:53:39.027Z,84.58
2022-12-27T09:56:07.424Z,84.18
2022-12-27T09:58:44.244Z,83.76
2022-12-27T10:01:20.528Z,83.02
2022-12-27T10:03:49.284Z,82.84
2022-12-27T10:06:44.389Z,82.17
2022-12-27T10:09:33.662Z,81.52
2022-12-27T10:12:07.639Z,81.42
2022-12-27T10:14:49.866Z,81.02
2022-12-27T10:17:30.301Z,80.53
2022-12-27T10:20:08.188Z,80.65
2022-12-27T10:22:38.908Z,80.74
2022-12-27T10:25:13.110Z,81.09
2022-12-27T10:27:41.567Z,81.29
2022-12-27T10:30:15.072Z,81.87
2022-12-27T10:32:44.612Z,81.65
2022-12-27T10:35:16.152Z,82.09
2022-12-27T10:37:45.329Z,81.71
2022-12-27T10:40:18.777Z,82.12
2022-12-27T10:42:49.059Z,82.26
2022-12-27T10:45:36.327Z,82.55
2022-12-27T10:48:24.395Z,82.47
2022-12-27T10:50:55.802Z,82.90
2022-12-27T10:53:29.742Z,82.79
2022-12-27T10:56:08.415Z,83.02
2022-12-27T10:58:41.811Z,83.20
2022-12-27T11:01:20.829Z,82.93
2022-12-27T11:03:50.543Z,82.81
2022-12-27T11:06:22.127Z,83.01
2022-12-27T11:08:50.983Z,83.18
2022-12-27T11:11:21.609Z,83.70
2022-12-27T11:13:49.914Z,83.78
2022-12-27T11:16:21.335Z,83.34
2022-12-27T11:18:53.313Z,83.49
2022-12-27T11:21:27.755Z,83.64
2022-12-27T11:23:57.790Z,83.30
2022-12-27T11:26:28.998Z,83.13
2022-12-27T11:28:59.314Z,82.83
2022-12-27T11:31:31.535Z,82.26
2022-12-27T11:34:03.422Z,81.70
2022-12-27T11:36:33.537Z,82.21
2022-12-27T11:39:01.772Z,82.17
2022-12-27T11:41:35.762Z,82.29
2022-12-27T11:44:12.020Z,82.21
2022-12-27T11:46:43.395Z,81.94
2022-12-27T11:49:19.864Z,81.55
2022-12-27T11:51:56.931Z,81.41
2022-12-27T11:54:41.555Z,81.39
2022-12-27T11:57:18.456Z,81.50
2022-12-27T11:59:55.437Z,81.33
2022-12-27T12:02:29.245Z,80.82
2022-12-27T12:05:27.576Z,80.18
2022-12-27T12:08:06.267Z,79.82
2022-12-27T12:10:44.002Z,79.52
2022-12-27T12:13:24.600Z,79.42
2022-12-27T12:16:04.151Z,79.64
2022-12-27T12:18:45.213Z,79.93
2022-12-27T12:21:25.542Z,79.36
2022-12-27T12:24:19.336Z,79.59
2022-12-27T12:26:55.962Z,79.32
2022-12-27T12:29:36.866Z,78.78
2022-12-27T12:32:15.118Z,79.13
2022-12-27T12:35:07.422Z,79.35
2022-12-27T12:37:52.648Z,80.20
2022-12-27T12:40:32.817Z,80.33
2022-12-27T12:43:11.879Z,80.35
2022-12-27T12:45:49.405Z,80.41
2022-12-27T12:48:43.948Z,81.16
2022-12-27T12:51:26.702Z,80.27
2022-12-27T12:54:06.555Z,79.94
2022-12-27T12:57:05.389Z,79.56
2022-12-27T12:59:49.341Z,80.08
2022-12-27T13:02:35.463Z,80.34
2022-12-27T13:05:13.745Z,80.17
2022-12-27T13:07:52.716Z,80.57
2022-12-27T13:10:53.326Z,80.90
2022-12-27T13:13:27.456Z,80.80
2022-12-27T13:16:04.576Z,81.20
2022-12-27T13:18:38.319Z,80.74
2022-12-27T13:21:17.729Z,81.26
2022-12-27T13:23:55.656Z,81.30
2022-12-27T13:26:32.655Z,81.22
2022-12-27T13:29:13.272Z,82.09
2022-12-27T13:31:46.263Z,81.74
2022-12-27T13:34:24.708Z,82.16
2022-12-27T13:37:06.413Z,81.89
2022-12-27T13:39:42.810Z,81.97
2022-12-27T13:42:27.519Z,81.76
2022-12-27T13:45:05.162Z,82.01
2022-12-27T13:47:42.494Z,81.67
2022-12-27T13:50:45.742Z,81.48
2022-12-27T13:53:39.516Z,81.76
2022-12-27T13:56:51.929Z,81.88
2022-12-27T13:59:15.666Z,82.09
2022-12-27T14:02:13.721Z,82.15
2022-12-27T14:05:23.121Z,82.33
2022-12-27T14:07:57.743Z,82.65
2022-12-27T14:10:36.576Z,82.58
2022-12-27T14:13:07.731Z,82.68
2022-12-27T14:16:08.965Z,82.78
2022-12-27T14:18:50.042Z,82.89
2022-12-27T14:21:42.938Z,82.89
2022-12-27T14:24:19.166Z,82.43
2022-12-27T14:27:40.319Z,82.11
2022-12-27T14:30:22.972Z,82.12
2022-12-27T14:33:11.047Z,82.27
2022-12-27T14:36:19.884Z,82.15
2022-12-27T14:39:19.100Z,82.44
2022-12-27T14:42:16.093Z,82.55
2022-12-27T14:45:15.792Z,82.83
2022-12-27T14:48:00.635Z,83.24
2022-12-27T14:50:50.479Z,83.39
2022-12-27T14:53:39.725Z,83.66
2022-12-27T14:56:17.514Z,84.09
2022-12-27T14:58:53.977Z,84.28
2022-12-27T15:01:31.164Z,84.57
2022-12-27T15:04:11.865Z,84.79
2022-12-27T15:06:50.528Z,84.83
2022-12-27T15:09:26.062Z,85.13
2022-12-27T15:12:05.761Z,85.35
2022-12-27T15:14:59.523Z,85.59
2022-12-27T15:17:41.817Z,85.77
2022-12-27T15:20:21.577Z,85.89
2022-12-27T15:23:00.303Z,85.91
2022-12-27T15:25:35.906Z,86.11
2022-12-27T15:28:09.090Z,86.29
2022-12-27T15:30:44.053Z,86.45
2022-12-27T15:33:23.517Z,86.70
2022-12-27T15:35:57.040Z,86.92
2022-12-27T15:38:47.140Z,87.17
2022-12-27T15:41:35.210Z,87.44
2022-12-27T15:44:21.011Z,87.68
2022-12-27T15:47:15.261Z,87.90
2022-12-27T15:50:15.191Z,88.00
2022-12-27T15:53:00.626Z,88.21
2022-12-27T15:55:52.322Z,88.58
2022-12-27T15:58:21.749Z,88.70
2022-12-27T16:01:25.663Z,88.89
2022-12-27T16:03:55.814Z,89.05
2022-12-27T16:06:49.317Z,89.09
2022-12-27T16:09:36.097Z,89.25
2022-12-27T16:12:08.811Z,89.38
2022-12-27T16:14:39.201Z,89.63
2022-12-27T16:17:24.338Z,89.64
2022-12-27T16:20:04.598Z,89.88
2022-12-27T16:22:36.458Z,90.04
2022-12-27T16:25:26.978Z,89.97
2022-12-27T16:28:01.270Z,90.09
2022-12-27T16:30:43.010Z,90.27
2022-12-27T16:33:34.935Z,90.32
2022-12-27T16:36:06.000Z,90.35
2022-12-27T16:38:35.083Z,90.42
2022-12-27T16:41:14.775Z,90.49
2022-12-27T16:44:04.766Z,90.52
2022-12-27T16:46:59.661Z,90.63
2022-12-27T16:49:36.009Z,90.74
2022-12-27T16:52:28.668Z,91.06
2022-12-27T16:55:05.015Z,91.20
2022-12-27T16:57:42.914Z,91.23
2022-12-27T17:00:40.670Z,91.36
2022-12-27T17:03:32.592Z,91.47
2022-12-27T17:09:33.678Z,91.79
2022-12-27T17:12:07.061Z,91.64
2022-12-27T17:14:36.837Z,91.58
2022-12-27T17:17:09.193Z,91.48
2022-12-27T17:19:39.956Z,91.43
2022-12-27T17:22:11.992Z,91.49
2022-12-27T17:24:40.144Z,91.46
2022-12-27T17:27:16.990Z,91.47
2022-12-27T17:30:02.204Z,91.59
2022-12-27T17:32:43.667Z,91.64
2022-12-27T17:35:16.616Z,91.70
2022-12-27T17:37:58.747Z,91.68
2022-12-27T17:40:31.002Z,91.80
2022-12-27T17:43:21.504Z,91.79
2022-12-27T17:45:53.527Z,91.74
2022-12-27T17:48:25.262Z,91.77
2022-12-27T17:50:56.177Z,91.87
2022-12-27T17:53:42.880Z,91.84
2022-12-27T17:56:38.301Z,91.86
2022-12-27T17:59:12.690Z,91.86
2022-12-27T18:01:46.794Z,91.84
2022-12-27T18:04:21.595Z,91.77
2022-12-27T18:06:49.797Z,91.71
2022-12-27T18:09:29.234Z,91.56
2022-12-27T18:11:57.482Z,91.50
2022-12-27T18:14:30.457Z,91.39
2022-12-27T18:16:58.703Z,91.12
2022-12-27T18:19:29.886Z,90.95
2022-12-27T18:21:59.163Z,90.84
2022-12-27T18:24:29.550Z,90.81
2022-12-27T18:27:05.505Z,90.59
2022-12-27T18:29:35.084Z,90.36
2022-12-27T18:32:05.791Z,90.31
2022-12-27T18:34:36.959Z,90.12
2022-12-27T18:37:07.620Z,90.26
2022-12-27T18:39:37.460Z,90.16
2022-12-27T18:42:07.955Z,90.07
2022-12-27T18:44:42.847Z,90.10
2022-12-27T18:47:17.863Z,90.18
2022-12-27T18:49:46.213Z,90.11
2022-12-27T18:52:16.937Z,90.01
2022-12-27T18:54:44.984Z,89.94
2022-12-27T18:57:29.386Z,89.94
2022-12-27T19:00:14.123Z,89.99
2022-12-27T19:02:43.264Z,89.93
2022-12-27T19:05:24.716Z,89.97
2022-12-27T19:07:55.716Z,90.04
2022-12-27T19:10:25.517Z,90.10
2022-12-27T19:12:54.002Z,90.14
2022-12-27T19:15:27.969Z,90.18
2022-12-27T19:17:58.207Z,90.36
2022-12-27T19:20:28.796Z,90.19
2022-12-27T19:22:58.345Z,90.43
2022-12-27T19:25:28.460Z,90.49
2022-12-27T19:28:01.654Z,90.49
2022-12-27T19:30:36.765Z,90.38
2022-12-27T19:33:10.258Z,90.44
2022-12-27T19:35:38.252Z,90.42
2022-12-27T19:38:06.621Z,90.34
2022-12-27T19:40:34.685Z,90.37
2022-12-27T19:43:02.683Z,90.26
2022-12-27T19:45:30.670Z,90.28
2022-12-27T19:48:00.139Z,90.23
2022-12-27T19:50:28.197Z,90.25
2022-12-27T19:52:56.302Z,90.22
2022-12-27T19:55:26.881Z,90.11
2022-12-27T19:57:54.972Z,90.11
2022-12-27T20:00:24.275Z,90.00
2022-12-27T20:02:53.370Z,89.91
2022-12-27T20:06:14.311Z,89.77
2022-12-27T20:08:23.578Z,89.61
2022-12-27T20:10:51.695Z,89.53
2022-12-27T20:13:20.991Z,89.34
2022-12-27T20:15:49.283Z,89.21
2022-12-27T20:18:17.465Z,89.10
2022-12-27T20:20:47.375Z,89.04
2022-12-27T20:23:16.458Z,89.04
2022-12-27T20:25:46.514Z,89.13
2022-12-27T20:28:15.658Z,89.06
2022-12-27T20:30:45.034Z,88.99
2022-12-27T20:33:13.700Z,88.97
2022-12-27T20:35:42.396Z,88.98
2022-12-27T20:38:12.466Z,88.83
2022-12-27T20:40:42.416Z,88.97
2022-12-27T20:43:10.460Z,88.87
2022-12-27T20:45:38.490Z,88.85
2022-12-27T20:48:06.790Z,88.88
2022-12-27T20:50:34.841Z,88.76
2022-12-27T20:53:03.447Z,88.61
2022-12-27T20:55:33.385Z,88.52
2022-12-27T20:58:01.754Z,88.59
2022-12-27T21:00:30.147Z,88.70
2022-12-27T21:02:58.300Z,88.67
2022-12-27T21:05:26.487Z,88.67
2022-12-27T21:07:54.539Z,88.72
2022-12-27T21:10:22.634Z,88.63
2022-12-27T21:12:52.071Z,88.70
2022-12-27T21:15:20.012Z,88.71
2022-12-27T21:17:48.014Z,88.66
2022-12-27T21:20:16.170Z,88.70
2022-12-27T21:22:44.468Z,88.71
2022-12-27T21:25:12.511Z,88.81
2022-12-27T21:27:40.526Z,88.82
2022-12-27T21:30:13.467Z,88.91
2022-12-27T21:32:41.570Z,89.03
2022-12-27T21:35:10.775Z,89.20
2022-12-27T21:37:38.811Z,89.22
2022-12-27T21:40:08.232Z,89.32
2022-12-27T21:42:36.257Z,89.27
2022-12-27T21:45:04.728Z,89.32
2022-12-27T21:47:34.162Z,89.41
2022-12-27T21:50:02.183Z,89.48
2022-12-27T21:52:30.177Z,89.53
2022-12-27T21:54:58.223Z,89.51
2022-12-27T21:57:26.382Z,89.45
2022-12-27T21:59:56.027Z,89.55
2022-12-27T22:02:24.146Z,89.58
2022-12-27T22:04:53.641Z,89.66
2022-12-27T22:07:21.825Z,89.73
2022-12-27T22:09:49.943Z,89.67
2022-12-27T22:12:18.015Z,89.74
2022-12-27T22:14:46.039Z,89.80
2022-12-27T22:17:14.072Z,89.83
2022-12-27T22:19:42.105Z,89.95
2022-12-27T22:22:11.748Z,90.07
2022-12-27T22:24:39.744Z,90.14
2022-12-27T22:27:07.867Z,90.24
2022-12-27T22:29:35.943Z,90.23
2022-12-27T22:32:03.961Z,90.17
2022-12-27T22:34:32.130Z,90.26
2022-12-27T22:37:00.145Z,90.35
2022-12-27T22:39:30.106Z,90.31
2022-12-27T22:41:58.196Z,90.39
2022-12-27T22:44:27.026Z,90.43
2022-12-27T22:47:25.228Z,90.40
2022-12-27T22:49:47.252Z,90.28
2022-12-27T22:52:15.267Z,90.17
2022-12-27T22:55:06.079Z,90.09
2022-12-27T22:57:32.534Z,89.90
2022-12-27T23:00:00.753Z,89.89
2022-12-27T23:02:29.132Z,89.81
2022-12-27T23:04:57.325Z,89.74
2022-12-27T23:08:03.612Z,89.64
2022-12-27T23:10:29.552Z,89.53
2022-12-27T23:12:57.621Z,89.34
2022-12-27T23:15:25.695Z,89.25
2022-12-27T23:17:53.767Z,89.12
2022-12-27T23:20:21.747Z,89.05
2022-12-27T23:22:49.795Z,88.99
2022-12-27T23:25:17.839Z,88.80
2022-12-27T23:27:47.461Z,88.77
2022-12-27T23:30:16.098Z,88.79
2022-12-27T23:32:44.157Z,88.80
2022-12-27T23:35:12.237Z,88.66
2022-12-27T23:37:40.224Z,88.52
2022-12-27T23:40:09.340Z,88.33
2022-12-27T23:42:37.313Z,88.19
2022-12-27T23:45:07.738Z,88.04
2022-12-27T23:47:36.150Z,88.01
2022-12-27T23:50:05.330Z,88.03
2022-12-27T23:52:33.365Z,87.81
2022-12-27T23:55:01.411Z,87.74
2022-12-27T23:57:29.425Z,87.78
2022-12-27T23:59:57.427Z,87.68
